Time;durP1;ratioP1;P1;durP2;ratioP2;P2;SDS_P1;SDS_P2;PMS_P1;PMS_P2;Temp;Humidity;BMP_temperature;BMP_pressure;BME280_temperature;BME280_humidity;BME280_pressure;Samples;Min_cycle;Max_cycle;Signal;HPM_P1;HPM_P2
2021/12/30 00:00:56;;;;;;;17.60;11.50;;;;;;;-0.75;61.09;100682.44;117402;1185;22955;-66
2021/12/30 00:03:24;;;;;;;18.90;11.90;;;;;;;-0.76;61.17;100680.85;117354;1185;21862;-73
2021/12/30 00:05:53;;;;;;;19.60;11.90;;;;;;;-0.77;61.19;100688.73;117341;1184;23437;-74
2021/12/30 00:08:22;;;;;;;18.30;11.10;;;;;;;-0.75;61.33;100689.16;117338;1185;21973;-74
2021/12/30 00:10:51;;;;;;;17.70;11.20;;;;;;;-0.75;61.15;100696.41;117366;1182;21925;-74
2021/12/30 00:13:19;;;;;;;18.80;12.00;;;;;;;-0.74;61.19;100697.13;117386;1185;22002;-63
2021/12/30 00:15:48;;;;;;;19.00;11.60;;;;;;;-0.72;61.10;100695.45;117409;1185;21869;-74
2021/12/30 00:18:16;;;;;;;23.30;13.30;;;;;;;-0.71;60.99;100689.29;117355;1185;22838;-62
2021/12/30 00:20:45;;;;;;;19.70;11.60;;;;;;;-0.72;60.92;100683.06;117354;1182;21855;-74
2021/12/30 00:23:13;;;;;;;18.00;11.60;;;;;;;-0.74;60.98;100682.48;117401;1184;21967;-74
2021/12/30 00:25:42;;;;;;;20.40;11.70;;;;;;;-0.77;61.03;100685.32;117344;1185;21929;-62
2021/12/30 00:28:14;;;;;;;17.60;11.50;;;;;;;-0.78;60.96;100685.77;117304;1182;22929;-74
2021/12/30 00:30:48;;;;;;;19.60;11.70;;;;;;;-0.80;60.86;100694.48;117075;1184;21900;-64
2021/12/30 00:33:17;;;;;;;19.40;12.20;;;;;;;-0.81;61.10;100699.27;117343;1186;23617;-74
2021/12/30 00:35:49;;;;;;;20.00;11.60;;;;;;;-0.80;61.02;100695.02;117295;1186;23000;-74
2021/12/30 00:38:18;;;;;;;19.70;13.00;;;;;;;-0.79;61.17;100695.55;117415;1184;21864;-63
2021/12/30 00:40:46;;;;;;;19.10;12.90;;;;;;;-0.80;61.19;100702.77;117339;1185;23528;-74
2021/12/30 00:43:14;;;;;;;21.20;12.20;;;;;;;-0.79;61.03;100704.55;117452;1185;22910;-62
2021/12/30 00:45:44;;;;;;;21.50;13.10;;;;;;;-0.78;61.04;100708.35;117311;1185;23374;-62
2021/12/30 00:48:13;;;;;;;22.00;14.00;;;;;;;-0.78;61.22;100698.52;117389;1185;24159;-74
2021/12/30 00:50:41;;;;;;;22.40;12.20;;;;;;;-0.82;60.91;100699.04;117361;1186;21862;-74
2021/12/30 00:53:10;;;;;;;20.50;13.10;;;;;;;-0.84;60.88;100705.19;117314;1182;21902;-74
2021/12/30 00:55:38;;;;;;;23.30;12.30;;;;;;;-0.84;60.70;100710.50;117356;1188;21848;-74
2021/12/30 00:58:07;;;;;;;21.70;13.10;;;;;;;-0.87;60.69;100709.89;117350;1185;23706;-74
2021/12/30 01:00:36;;;;;;;22.60;13.70;;;;;;;-0.89;60.58;100714.11;117365;1186;21887;-62
2021/12/30 01:03:05;;;;;;;22.20;12.90;;;;;;;-0.94;60.57;100710.66;117313;1185;21912;-63
2021/12/30 01:05:33;;;;;;;24.90;14.00;;;;;;;-0.95;60.89;100712.16;117322;1184;22179;-63
2021/12/30 01:08:03;;;;;;;20.20;12.20;;;;;;;-0.97;60.69;100711.59;117347;1183;23542;-63
2021/12/30 01:10:34;;;;;;;21.20;12.20;;;;;;;-0.97;61.02;100713.98;117311;1186;21840;-63
2021/12/30 01:13:07;;;;;;;20.40;12.50;;;;;;;-0.99;60.98;100717.01;117164;1187;22029;-74
2021/12/30 01:16:01;;;;;;;20.30;12.30;;;;;;;-1.01;61.04;100718.27;117312;1186;21847;-62
2021/12/30 01:21:26;;;;;;;19.70;11.90;;;;;;;-1.07;61.03;100721.35;117148;1188;21864;-74
2021/12/30 01:23:55;;;;;;;18.40;11.60;;;;;;;-1.08;61.10;100722.48;117344;1183;21863;-62
2021/12/30 01:26:23;;;;;;;21.60;13.10;;;;;;;-1.08;61.19;100721.64;117412;1185;21940;-62
2021/12/30 01:28:51;;;;;;;21.20;12.70;;;;;;;-1.06;61.27;100714.35;117343;1182;21860;-74
2021/12/30 01:31:23;;;;;;;22.50;13.30;;;;;;;-1.06;61.24;100711.89;117329;1185;21873;-74
2021/12/30 01:34:12;;;;;;;21.30;12.90;;;;;;;-1.07;61.27;100711.51;117297;1186;23055;-72
2021/12/30 01:36:41;;;;;;;24.30;12.50;;;;;;;-1.07;61.16;100704.29;117345;1188;23567;-61
2021/12/30 01:39:09;;;;;;;20.80;12.00;;;;;;;-1.06;61.18;100702.09;117381;1185;21848;-73
2021/12/30 01:41:37;;;;;;;22.70;13.00;;;;;;;-1.05;60.92;100704.00;117345;1185;23595;-61
2021/12/30 01:44:05;;;;;;;21.40;12.20;;;;;;;-1.07;60.98;100698.45;117361;1180;23560;-72
2021/12/30 01:46:41;;;;;;;19.80;12.40;;;;;;;-1.06;61.10;100698.63;117365;1186;23474;-73
2021/12/30 01:49:09;;;;;;;20.20;11.90;;;;;;;-1.06;61.18;100702.26;117259;1188;21967;-73
2021/12/30 01:51:38;;;;;;;19.20;12.40;;;;;;;-1.06;61.30;100705.19;117294;1185;22933;-72
2021/12/30 01:54:06;;;;;;;20.90;13.10;;;;;;;-1.08;61.17;100703.40;117322;1186;22986;-61
2021/12/30 01:56:34;;;;;;;19.70;12.00;;;;;;;-1.08;61.23;100708.39;117393;1185;23561;-61
2021/12/30 01:59:03;;;;;;;22.10;13.20;;;;;;;-1.09;61.13;100708.50;117343;1186;21858;-73
2021/12/30 02:01:32;;;;;;;21.30;12.70;;;;;;;-1.10;61.07;100707.11;117371;1176;21855;-64
2021/12/30 02:04:07;;;;;;;24.80;15.40;;;;;;;-1.11;61.24;100706.53;117300;1185;21855;-61
2021/12/30 02:06:36;;;;;;;22.70;13.60;;;;;;;-1.13;61.04;100706.45;117298;1186;21860;-73
2021/12/30 02:09:04;;;;;;;21.60;13.90;;;;;;;-1.16;61.16;100708.91;117370;1182;21863;-73
2021/12/30 02:11:32;;;;;;;25.60;13.40;;;;;;;-1.19;60.96;100708.96;117410;1183;21871;-61
2021/12/30 02:14:01;;;;;;;22.60;13.80;;;;;;;-1.18;61.03;100709.34;117351;1182;21957;-73
2021/12/30 02:16:33;;;;;;;24.50;14.00;;;;;;;-1.16;61.27;100711.70;117334;1181;21916;-73
2021/12/30 02:19:02;;;;;;;25.00;13.90;;;;;;;-1.14;61.12;100710.02;117346;1185;21860;-61
2021/12/30 02:21:31;;;;;;;23.30;13.40;;;;;;;-1.15;60.95;100713.10;117382;1188;21874;-70
2021/12/30 02:23:59;;;;;;;24.30;13.80;;;;;;;-1.18;61.08;100711.09;117392;1182;21956;-61
2021/12/30 02:26:28;;;;;;;22.10;13.50;;;;;;;-1.22;61.00;100709.55;117389;1185;22011;-61
2021/12/30 02:29:00;;;;;;;22.50;14.20;;;;;;;-1.23;61.22;100704.65;117300;1182;22313;-62
2021/12/30 02:31:30;;;;;;;19.90;12.40;;;;;;;-1.26;60.99;100700.77;117316;1186;21860;-61
2021/12/30 02:33:58;;;;;;;21.50;13.50;;;;;;;-1.28;61.18;100698.80;117352;1185;21916;-61
2021/12/30 02:36:32;;;;;;;23.70;14.20;;;;;;;-1.29;61.11;100701.87;117378;1185;22087;-61
2021/12/30 02:39:05;;;;;;;20.50;12.30;;;;;;;-1.28;61.22;100702.06;117250;1186;21858;-73
2021/12/30 02:41:37;;;;;;;22.00;14.10;;;;;;;-1.28;61.16;100701.54;117325;1186;23442;-61
2021/12/30 02:44:07;;;;;;;19.40;12.30;;;;;;;-1.30;61.18;100705.25;117322;1185;22082;-61
2021/12/30 02:46:37;;;;;;;22.90;13.90;;;;;;;-1.29;61.16;100710.61;117341;1182;23649;-73
2021/12/30 02:49:06;;;;;;;22.40;13.60;;;;;;;-1.30;61.03;100726.59;117365;1186;21861;-61
2021/12/30 02:51:34;;;;;;;24.70;12.90;;;;;;;-1.33;61.25;100728.54;117362;1185;21898;-73
2021/12/30 02:54:03;;;;;;;22.30;13.00;;;;;;;-1.36;61.16;100735.33;117497;1185;21866;-61
2021/12/30 02:56:32;;;;;;;23.00;13.00;;;;;;;-1.37;61.17;100740.45;117268;1185;22971;-62
2021/12/30 02:59:00;;;;;;;22.40;13.00;;;;;;;-1.39;60.96;100746.02;117354;1185;21870;-62
2021/12/30 03:01:30;;;;;;;25.30;13.90;;;;;;;-1.45;60.93;100754.20;117397;1186;21856;-61
2021/12/30 03:04:03;;;;;;;24.80;13.50;;;;;;;-1.46;61.07;100759.31;117400;1180;21855;-61
2021/12/30 03:06:31;;;;;;;22.10;13.80;;;;;;;-1.50;61.12;100753.67;117381;1183;21855;-61
2021/12/30 03:09:00;;;;;;;21.00;12.40;;;;;;;-1.46;61.28;100757.77;117339;1185;23539;-73
2021/12/30 03:11:29;;;;;;;18.30;12.00;;;;;;;-1.46;61.08;100755.91;117423;1185;21869;-61
2021/12/30 03:13:58;;;;;;;20.30;12.60;;;;;;;-1.44;61.15;100758.04;117309;1183;21943;-61
2021/12/30 03:16:29;;;;;;;21.20;13.40;;;;;;;-1.45;61.10;100757.83;117416;1186;24166;-72
2021/12/30 03:18:58;;;;;;;20.80;13.50;;;;;;;-1.48;61.03;100754.09;117364;1185;21859;-73
2021/12/30 03:21:27;;;;;;;19.40;10.90;;;;;;;-1.48;61.00;100754.77;117317;1185;23548;-61
2021/12/30 03:23:57;;;;;;;27.80;14.40;;;;;;;-1.50;61.00;100755.04;117351;1186;23541;-61
2021/12/30 03:26:26;;;;;;;23.80;13.80;;;;;;;-1.48;61.18;100752.20;117378;1185;21857;-73
2021/12/30 03:28:54;;;;;;;23.00;14.10;;;;;;;-1.46;61.29;100755.55;117280;1186;21844;-73
2021/12/30 03:31:22;;;;;;;21.50;12.60;;;;;;;-1.47;61.09;100755.16;117328;1185;21889;-61
2021/12/30 03:33:51;;;;;;;29.50;15.20;;;;;;;-1.47;60.95;100752.73;117365;1185;21868;-73
2021/12/30 03:36:20;;;;;;;21.50;13.90;;;;;;;-1.46;61.11;100754.13;117326;1183;22953;-73
2021/12/30 03:38:50;;;;;;;27.30;15.00;;;;;;;-1.48;60.96;100762.86;117390;1183;23570;-61
2021/12/30 03:41:20;;;;;;;28.00;15.10;;;;;;;-1.50;61.14;100759.69;117362;1186;21853;-73
2021/12/30 03:43:48;;;;;;;24.40;14.90;;;;;;;-1.52;61.01;100760.98;117304;1180;23365;-73
2021/12/30 03:46:17;;;;;;;26.60;15.10;;;;;;;-1.57;61.17;100764.23;117385;1186;21857;-73
2021/12/30 03:48:45;;;;;;;24.50;15.20;;;;;;;-1.57;61.18;100762.64;117363;1185;23497;-62
2021/12/30 03:51:22;;;;;;;29.60;16.20;;;;;;;-1.60;61.22;100766.31;117330;1183;23425;-72
2021/12/30 03:53:53;;;;;;;28.00;15.80;;;;;;;-1.62;61.28;100768.80;117360;1176;21865;-61
2021/12/30 03:56:23;;;;;;;24.50;14.80;;;;;;;-1.60;61.01;100774.77;117383;1185;21861;-70
2021/12/30 03:58:51;;;;;;;23.00;14.50;;;;;;;-1.57;61.14;100771.42;117349;1177;23675;-61
2021/12/30 04:01:21;;;;;;;24.50;14.90;;;;;;;-1.55;61.20;100773.79;117401;1185;21860;-61
2021/12/30 04:03:49;;;;;;;25.50;14.70;;;;;;;-1.53;61.05;100784.34;117377;1185;21929;-61
2021/12/30 04:06:18;;;;;;;26.30;16.00;;;;;;;-1.55;61.13;100779.09;117401;1185;21844;-61
2021/12/30 04:08:46;;;;;;;22.70;14.40;;;;;;;-1.58;61.16;100781.36;117320;1185;21854;-67
2021/12/30 04:11:14;;;;;;;25.80;16.20;;;;;;;-1.61;61.16;100782.98;117354;1182;21857;-73
2021/12/30 04:13:43;;;;;;;27.50;16.00;;;;;;;-1.62;61.08;100783.61;117420;1182;21860;-62
2021/12/30 04:16:12;;;;;;;23.90;14.60;;;;;;;-1.64;61.10;100789.37;117374;1185;22906;-73
2021/12/30 04:18:40;;;;;;;24.50;14.50;;;;;;;-1.64;61.13;100789.73;117445;1184;21848;-62
2021/12/30 04:21:09;;;;;;;23.20;14.00;;;;;;;-1.63;61.10;100790.27;117374;1186;23560;-62
2021/12/30 04:23:37;;;;;;;23.90;14.80;;;;;;;-1.62;61.38;100790.67;117342;1185;21947;-62
2021/12/30 04:26:07;;;;;;;25.50;14.30;;;;;;;-1.56;61.27;100797.83;117362;1183;21854;-61
2021/12/30 04:28:35;;;;;;;23.90;15.40;;;;;;;-1.53;61.09;100802.40;117323;1182;21861;-62
2021/12/30 04:31:04;;;;;;;23.90;13.70;;;;;;;-1.54;60.90;100805.46;117383;1185;21855;-74
2021/12/30 04:33:32;;;;;;;27.00;15.00;;;;;;;-1.55;61.08;100803.73;117373;1186;21868;-62
2021/12/30 04:36:15;;;;;;;25.50;15.20;;;;;;;-1.58;60.92;100808.06;117323;1186;21854;-74
2021/12/30 04:38:44;;;;;;;21.60;13.20;;;;;;;-1.59;60.98;100809.56;117369;1186;21860;-62
2021/12/30 04:41:13;;;;;;;26.00;15.00;;;;;;;-1.61;60.85;100811.67;117349;1183;21865;-62
2021/12/30 04:43:42;;;;;;;23.80;13.50;;;;;;;-1.62;60.88;100815.80;117428;1182;23702;-61
2021/12/30 04:46:10;;;;;;;25.90;14.70;;;;;;;-1.61;61.13;100825.31;117420;1185;22153;-74
2021/12/30 04:48:39;;;;;;;24.60;13.70;;;;;;;-1.59;61.09;100825.41;117367;1186;21861;-74
2021/12/30 04:51:07;;;;;;;24.90;14.80;;;;;;;-1.56;61.13;100826.05;117370;1186;21964;-62
2021/12/30 04:53:35;;;;;;;28.70;15.40;;;;;;;-1.55;61.13;100829.86;117360;1185;21970;-73
2021/12/30 04:56:04;;;;;;;24.40;14.90;;;;;;;-1.57;61.05;100833.73;117256;1188;21855;-61
2021/12/30 04:58:33;;;;;;;26.30;14.50;;;;;;;-1.57;60.94;100835.83;117313;1185;21871;-62
2021/12/30 05:01:02;;;;;;;24.60;14.40;;;;;;;-1.58;60.83;100842.11;117366;1186;23615;-74
2021/12/30 05:03:31;;;;;;;26.10;14.70;;;;;;;-1.58;61.32;100844.90;117433;1185;22958;-74
2021/12/30 05:05:59;;;;;;;25.20;15.50;;;;;;;-1.58;61.06;100850.20;117417;1185;21861;-62
2021/12/30 05:08:27;;;;;;;24.60;14.30;;;;;;;-1.62;60.92;100854.31;117387;1186;21865;-61
2021/12/30 05:10:57;;;;;;;25.30;14.90;;;;;;;-1.64;60.98;100856.66;117467;1185;21857;-73
2021/12/30 05:13:25;;;;;;;26.50;14.50;;;;;;;-1.64;61.08;100853.41;117351;1185;22911;-73
2021/12/30 05:15:53;;;;;;;23.40;14.40;;;;;;;-1.58;61.07;100853.31;117375;1186;23442;-62
2021/12/30 05:18:30;;;;;;;30.30;16.50;;;;;;;-1.50;61.18;100853.48;117326;1186;21859;-62
2021/12/30 05:20:59;;;;;;;25.90;14.90;;;;;;;-1.48;61.23;100859.27;117282;1186;21856;-61
2021/12/30 05:23:28;;;;;;;31.90;15.10;;;;;;;-1.45;61.13;100864.05;117493;1183;21849;-74
2021/12/30 05:25:56;;;;;;;28.90;16.00;;;;;;;-1.42;61.13;100867.48;117217;1186;21919;-62
2021/12/30 05:28:24;;;;;;;26.00;14.90;;;;;;;-1.38;61.10;100871.77;117349;1186;23438;-73
2021/12/30 05:30:52;;;;;;;28.90;15.30;;;;;;;-1.38;61.11;100877.95;117356;1182;21857;-61
2021/12/30 05:33:22;;;;;;;32.10;16.40;;;;;;;-1.35;61.18;100882.75;117378;1186;21856;-75
2021/12/30 05:35:50;;;;;;;32.10;15.80;;;;;;;-1.26;61.23;100883.27;117330;1186;21861;-60
2021/12/30 05:38:18;;;;;;;26.70;14.50;;;;;;;-1.15;61.44;100885.51;117280;1180;21859;-65
2021/12/30 05:40:46;;;;;;;30.80;16.20;;;;;;;-1.04;61.50;100889.56;117368;1185;21867;-61
2021/12/30 05:43:15;;;;;;;33.80;15.90;;;;;;;-0.93;61.67;100893.00;117428;1186;21857;-66
2021/12/30 05:45:43;;;;;;;28.30;15.40;;;;;;;-0.85;61.60;100895.54;117355;1185;21857;-63
2021/12/30 05:48:12;;;;;;;28.80;15.30;;;;;;;-0.84;61.39;100895.77;117339;1183;21900;-63
2021/12/30 05:50:40;;;;;;;27.10;15.50;;;;;;;-0.84;61.35;100898.52;117393;1185;21870;-62
2021/12/30 05:53:09;;;;;;;25.80;14.70;;;;;;;-0.84;61.34;100894.23;117342;1182;21863;-75
2021/12/30 05:55:37;;;;;;;28.30;15.30;;;;;;;-0.83;61.35;100897.16;117826;1184;23455;-76
2021/12/30 05:58:05;;;;;;;28.80;14.50;;;;;;;-0.79;61.52;100899.27;117332;1186;21868;-60
2021/12/30 06:00:34;;;;;;;31.60;15.30;;;;;;;-0.72;61.63;100907.30;117376;1185;23454;-60
2021/12/30 06:03:03;;;;;;;26.20;13.70;;;;;;;-0.67;61.40;100909.59;117445;1183;21955;-62
2021/12/30 06:05:32;;;;;;;24.90;14.00;;;;;;;-0.64;61.36;100911.08;117230;1185;23881;-79
2021/12/30 06:08:00;;;;;;;26.90;14.30;;;;;;;-0.67;61.33;100912.31;117343;1185;23445;-60
2021/12/30 06:10:29;;;;;;;26.30;14.10;;;;;;;-0.72;61.28;100917.11;117421;1183;23551;-76
2021/12/30 06:12:57;;;;;;;30.40;13.50;;;;;;;-0.77;61.20;100917.96;117380;1183;21857;-60
2021/12/30 06:15:27;;;;;;;26.90;13.50;;;;;;;-0.80;61.29;100915.25;117369;1185;22980;-61
2021/12/30 06:17:55;;;;;;;29.20;13.90;;;;;;;-0.81;61.15;100917.79;117329;1183;22813;-74
2021/12/30 06:20:23;;;;;;;26.50;13.10;;;;;;;-0.74;61.58;100920.11;117328;1183;21858;-75
2021/12/30 06:22:52;;;;;;;27.80;13.20;;;;;;;-0.69;61.33;100918.81;117328;1185;21864;-64
2021/12/30 06:25:20;;;;;;;27.50;12.80;;;;;;;-0.67;61.29;100924.05;117392;1182;24149;-60
2021/12/30 06:27:48;;;;;;;23.00;13.80;;;;;;;-0.67;61.21;100926.14;117168;1188;21871;-75
2021/12/30 06:30:17;;;;;;;26.40;13.70;;;;;;;-0.67;61.27;100934.41;117372;1183;21857;-60
2021/12/30 06:32:45;;;;;;;27.00;13.10;;;;;;;-0.66;61.12;100933.73;117361;1182;21898;-75
2021/12/30 06:35:13;;;;;;;27.30;13.00;;;;;;;-0.63;61.22;100936.12;117389;1183;21864;-76
2021/12/30 06:37:42;;;;;;;26.80;13.80;;;;;;;-0.60;61.30;100936.08;117303;1183;21851;-60
2021/12/30 06:40:11;;;;;;;24.50;14.00;;;;;;;-0.58;61.12;100940.27;117280;1186;21856;-61
2021/12/30 06:42:41;;;;;;;25.70;15.40;;;;;;;-0.56;61.38;100940.54;117170;1189;21850;-60
2021/12/30 06:45:10;;;;;;;30.10;12.90;;;;;;;-0.55;61.33;100950.77;117374;1186;21858;-60
2021/12/30 06:47:44;;;;;;;28.10;14.40;;;;;;;-0.55;61.45;100958.34;117360;1186;22063;-60
2021/12/30 06:50:14;;;;;;;26.60;14.50;;;;;;;-0.53;61.42;100962.41;117341;1186;21865;-61
2021/12/30 06:52:48;;;;;;;24.70;13.10;;;;;;;-0.48;61.26;100967.27;117327;1185;21848;-74
2021/12/30 06:55:16;;;;;;;28.90;13.40;;;;;;;-0.43;61.33;100974.52;117326;1185;23435;-60
2021/12/30 06:57:44;;;;;;;26.60;15.00;;;;;;;-0.42;61.30;100971.98;117384;1185;21988;-60
2021/12/30 07:00:13;;;;;;;22.90;13.30;;;;;;;-0.44;61.33;100976.88;117348;1182;23060;-60
2021/12/30 07:02:43;;;;;;;26.80;13.60;;;;;;;-0.47;61.27;100973.37;117314;1185;21863;-76
2021/12/30 07:05:11;;;;;;;28.10;14.90;;;;;;;-0.47;61.09;100971.27;117317;1188;23793;-60
2021/12/30 07:07:40;;;;;;;26.10;14.10;;;;;;;-0.47;61.00;100971.80;117316;1182;23551;-60
2021/12/30 07:10:09;;;;;;;24.40;13.50;;;;;;;-0.46;61.16;100973.22;117404;1185;23523;-73
2021/12/30 07:12:37;;;;;;;21.50;13.80;;;;;;;-0.46;61.24;100974.74;117367;1185;22060;-74
2021/12/30 07:15:06;;;;;;;27.70;14.30;;;;;;;-0.44;61.27;100977.59;117301;1185;21869;-75
2021/12/30 07:17:47;;;;;;;25.50;13.60;;;;;;;-0.44;61.46;100981.74;117235;1186;24256;-60
2021/12/30 07:20:15;;;;;;;25.20;13.80;;;;;;;-0.42;61.46;100983.52;117344;1185;22648;-75
2021/12/30 07:22:44;;;;;;;27.80;13.90;;;;;;;-0.43;61.28;100982.11;117312;1186;24162;-60
2021/12/30 07:25:17;;;;;;;25.00;13.50;;;;;;;-0.39;61.11;100983.64;117403;1185;21849;-75
2021/12/30 07:27:47;;;;;;;21.70;13.00;;;;;;;-0.34;61.10;100990.06;117378;1186;21859;-60
2021/12/30 07:30:16;;;;;;;25.60;13.60;;;;;;;-0.29;61.15;100989.60;117405;1176;22882;-75
2021/12/30 07:32:44;;;;;;;24.30;14.30;;;;;;;-0.25;61.36;100995.45;117332;1185;22921;-60
2021/12/30 07:35:14;;;;;;;25.20;14.20;;;;;;;-0.22;61.54;101000.56;117389;1182;21958;-60
2021/12/30 07:37:42;;;;;;;23.20;11.80;;;;;;;-0.17;61.24;101004.41;117423;1182;22628;-65
2021/12/30 07:40:10;;;;;;;27.60;14.40;;;;;;;-0.10;61.19;101011.94;117362;1180;23555;-60
2021/12/30 07:42:39;;;;;;;24.30;12.70;;;;;;;-0.07;61.27;101016.04;117338;1182;23543;-60
2021/12/30 07:45:09;;;;;;;22.80;14.10;;;;;;;-0.07;61.06;101021.05;117294;1185;24208;-60
2021/12/30 07:47:38;;;;;;;34.90;14.30;;;;;;;-0.07;61.32;101025.52;117289;1185;21855;-74
2021/12/30 07:50:08;;;;;;;26.00;14.10;;;;;;;-0.06;61.15;101029.89;117322;1183;23654;-59
2021/12/30 07:52:37;;;;;;;22.90;13.30;;;;;;;-0.05;61.22;101026.79;117277;1176;23462;-74
2021/12/30 07:55:06;;;;;;;25.00;13.30;;;;;;;-0.02;61.43;101031.95;117375;1185;21828;-74
2021/12/30 07:57:35;;;;;;;26.70;13.20;;;;;;;0.00;61.41;101037.03;117332;1183;22912;-65
2021/12/30 08:00:05;;;;;;;20.20;12.70;;;;;;;0.00;61.19;101047.20;117392;1185;21889;-60
2021/12/30 08:02:34;;;;;;;24.30;12.90;;;;;;;-0.05;61.24;101059.06;117375;1185;22868;-74
2021/12/30 08:05:05;;;;;;;19.30;12.40;;;;;;;-0.08;61.06;101060.84;117275;1186;23579;-75
2021/12/30 08:07:34;;;;;;;22.70;13.30;;;;;;;-0.10;61.05;101060.58;117351;1185;23741;-60
2021/12/30 08:10:03;;;;;;;22.00;12.40;;;;;;;-0.11;61.17;101055.18;117379;1186;21862;-75
2021/12/30 08:12:31;;;;;;;21.60;12.20;;;;;;;-0.11;61.29;101051.90;117356;1185;23672;-75
2021/12/30 08:15:00;;;;;;;26.00;14.10;;;;;;;-0.06;61.10;101056.96;117346;1186;21859;-76
2021/12/30 08:17:29;;;;;;;23.30;12.80;;;;;;;0.02;61.43;101054.88;117303;1185;23474;-76
2021/12/30 08:19:58;;;;;;;24.90;13.60;;;;;;;0.13;61.36;101055.14;117299;1185;23437;-60
2021/12/30 08:22:26;;;;;;;23.60;12.90;;;;;;;0.23;61.56;101050.04;117288;1185;23448;-60
2021/12/30 08:24:55;;;;;;;27.00;14.70;;;;;;;0.30;61.63;101043.23;117372;1182;23529;-79
2021/12/30 08:27:23;;;;;;;21.40;13.30;;;;;;;0.31;61.53;101046.19;117420;1185;23542;-75
2021/12/30 08:29:51;;;;;;;26.90;12.60;;;;;;;0.36;61.72;101049.48;117279;1186;22931;-69
2021/12/30 08:32:20;;;;;;;27.90;15.10;;;;;;;0.51;61.95;101050.43;117368;1182;23554;-59
2021/12/30 08:34:48;;;;;;;32.30;14.20;;;;;;;0.66;61.94;101051.55;117362;1183;23586;-60
2021/12/30 08:37:17;;;;;;;23.80;12.70;;;;;;;0.74;61.72;101052.02;117326;1189;22903;-77
2021/12/30 08:39:46;;;;;;;25.70;12.80;;;;;;;0.74;61.63;101047.35;117373;1183;22911;-76
2021/12/30 08:42:17;;;;;;;25.90;12.50;;;;;;;0.71;61.66;101047.08;117281;1186;21859;-60
2021/12/30 08:44:46;;;;;;;28.00;14.90;;;;;;;0.68;61.51;101052.48;117325;1185;23516;-77
2021/12/30 08:47:14;;;;;;;22.80;13.80;;;;;;;0.65;61.47;101049.28;117373;1185;24214;-77
2021/12/30 08:49:45;;;;;;;22.60;13.30;;;;;;;0.65;61.24;101052.70;117320;1186;21862;-61
2021/12/30 08:52:14;;;;;;;22.20;13.90;;;;;;;0.65;61.52;101051.86;117314;1182;22656;-60
2021/12/30 08:54:43;;;;;;;21.40;13.10;;;;;;;0.68;61.55;101055.07;117291;1182;24162;-77
2021/12/30 08:57:11;;;;;;;23.80;12.00;;;;;;;0.67;61.64;101047.79;117265;1186;23472;-60
2021/12/30 08:59:40;;;;;;;22.10;11.80;;;;;;;0.66;61.65;101048.61;117326;1186;21899;-78
2021/12/30 09:02:11;;;;;;;25.60;13.10;;;;;;;0.68;61.77;101050.74;117399;1182;23099;-61
2021/12/30 09:04:44;;;;;;;21.20;11.90;;;;;;;0.67;61.46;101056.08;117343;1185;23523;-78
2021/12/30 09:07:18;;;;;;;22.40;13.50;;;;;;;0.63;61.57;101053.15;117342;1185;22902;-60
2021/12/30 09:09:46;;;;;;;18.90;12.10;;;;;;;0.65;61.64;101047.88;117263;1182;22179;-78
2021/12/30 09:12:22;;;;;;;23.70;12.00;;;;;;;0.72;61.64;101044.52;117087;1187;21908;-61
2021/12/30 09:15:11;;;;;;;18.90;11.40;;;;;;;0.77;61.66;101043.67;117271;1185;22134;-76
2021/12/30 09:17:40;;;;;;;21.00;13.10;;;;;;;0.82;61.52;101039.38;119395;1185;21881;-74
2021/12/30 09:20:10;;;;;;;20.60;13.10;;;;;;;0.90;61.84;101035.35;117374;1176;21858;-63
2021/12/30 09:22:39;;;;;;;21.60;13.80;;;;;;;0.90;61.53;101031.20;117301;1185;21920;-63
2021/12/30 09:25:08;;;;;;;21.80;11.60;;;;;;;0.89;61.47;101022.54;117372;1185;23541;-64
2021/12/30 09:27:39;;;;;;;22.90;13.60;;;;;;;0.89;61.42;101018.72;117355;1183;23573;-73
2021/12/30 09:30:11;;;;;;;18.90;11.70;;;;;;;0.90;61.11;101016.50;117400;1185;22930;-64
2021/12/30 09:32:40;;;;;;;20.90;12.20;;;;;;;0.91;61.61;101017.39;117304;1182;22389;-63
2021/12/30 09:35:09;;;;;;;19.00;11.40;;;;;;;0.97;61.40;101011.91;117352;1185;22643;-64
2021/12/30 09:37:38;;;;;;;22.50;13.00;;;;;;;1.03;61.64;101008.70;117331;1182;22987;-63
2021/12/30 09:40:10;;;;;;;20.70;12.50;;;;;;;1.08;61.62;101016.64;117366;1186;22623;-63
2021/12/30 09:42:45;;;;;;;20.50;12.50;;;;;;;1.09;61.20;101022.39;117363;1186;22893;-72
2021/12/30 09:45:15;;;;;;;22.20;12.00;;;;;;;0.99;61.57;101029.81;117242;1186;23438;-72
2021/12/30 09:47:49;;;;;;;18.00;11.30;;;;;;;0.92;61.31;101029.04;117281;1182;22764;-72
2021/12/30 09:50:18;;;;;;;19.10;11.20;;;;;;;0.90;61.59;101023.23;117277;1186;21856;-63
2021/12/30 09:52:46;;;;;;;19.80;11.40;;;;;;;0.88;61.45;101026.12;117300;1186;21884;-73
2021/12/30 09:55:14;;;;;;;19.60;11.30;;;;;;;0.84;61.47;101019.59;117421;1186;23541;-73
2021/12/30 09:57:43;;;;;;;20.60;12.00;;;;;;;0.83;61.42;101019.21;117283;1186;24163;-63
2021/12/30 10:00:24;;;;;;;;;;;;;;;0.84;61.43;101016.64;117252;1186;23520;-63
2021/12/30 10:02:52;;;;;;;22.30;12.50;;;;;;;0.81;61.10;101017.75;117351;1186;21885;-63
2021/12/30 10:05:24;;;;;;;21.10;10.90;;;;;;;0.75;61.40;101013.19;117374;1185;21848;-63
2021/12/30 10:08:24;;;;;;;21.00;11.70;;;;;;;0.67;61.41;101012.73;117376;1182;21918;-73
2021/12/30 10:10:56;;;;;;;20.30;10.90;;;;;;;0.71;61.75;101007.52;116955;1189;22819;-73
2021/12/30 10:13:25;;;;;;;22.00;11.90;;;;;;;0.79;61.76;101007.48;116635;1189;23485;-73
2021/12/30 10:15:56;;;;;;;24.60;13.60;;;;;;;0.89;61.70;101013.55;118743;1186;21909;-62
2021/12/30 10:18:25;;;;;;;22.10;11.40;;;;;;;1.00;61.91;101010.84;116788;1189;21854;-62
2021/12/30 10:20:53;;;;;;;19.80;11.90;;;;;;;1.07;61.61;101012.11;116902;1186;21864;-63
2021/12/30 10:23:23;;;;;;;19.30;10.90;;;;;;;1.11;61.67;101007.41;116831;1186;21861;-78
2021/12/30 10:25:54;;;;;;;20.30;11.00;;;;;;;1.20;61.58;101006.04;116874;1189;22923;-61
2021/12/30 10:28:24;;;;;;;23.60;11.10;;;;;;;1.26;61.73;101002.77;116930;1186;21877;-77
2021/12/30 10:30:56;;;;;;;19.90;11.40;;;;;;;1.24;61.46;101008.95;116973;1189;21875;-61
2021/12/30 10:33:26;;;;;;;21.90;11.90;;;;;;;1.23;61.46;101015.11;116884;1189;21862;-75
2021/12/30 10:35:54;;;;;;;18.40;10.40;;;;;;;1.19;61.37;101012.57;116920;1186;22420;-61
2021/12/30 10:38:26;;;;;;;18.60;10.50;;;;;;;1.17;61.49;101007.29;116916;1189;22905;-75
2021/12/30 10:41:04;;;;;;;20.70;11.70;;;;;;;1.22;61.69;101006.09;116769;1189;21863;-76
2021/12/30 10:43:38;;;;;;;20.60;11.10;;;;;;;1.22;61.56;101009.71;116915;1186;21865;-61
2021/12/30 10:46:08;;;;;;;20.10;11.40;;;;;;;1.22;61.68;101007.84;116729;1189;21865;-76
2021/12/30 10:49:21;;;;;;;23.00;10.90;;;;;;;1.28;61.63;101005.11;117209;1185;21861;-76
2021/12/30 10:51:51;;;;;;;21.80;12.80;;;;;;;1.32;61.59;101005.25;116866;1189;23568;-61
2021/12/30 10:54:31;;;;;;;19.60;12.00;;;;;;;1.36;61.44;101003.98;116822;1188;21905;-75
2021/12/30 10:57:02;;;;;;;22.60;11.70;;;;;;;1.37;61.60;100994.86;116829;1186;21869;-62
2021/12/30 10:59:50;;;;;;;25.30;13.40;;;;;;;1.42;61.48;100988.98;116880;1186;23552;-77
2021/12/30 11:02:21;;;;;;;23.00;12.50;;;;;;;1.45;61.66;100988.75;116821;1189;21860;-63
2021/12/30 11:04:54;;;;;;;25.70;16.10;;;;;;;1.42;61.39;100993.48;116902;1186;22394;-64
2021/12/30 11:07:43;;;;;;;23.60;14.00;;;;;;;1.35;61.17;101000.83;116810;1189;22891;-79
2021/12/30 11:10:12;;;;;;;29.60;15.40;;;;;;;1.25;61.21;101008.11;116845;1186;22629;-78
2021/12/30 11:12:44;;;;;;;22.30;13.50;;;;;;;1.20;61.17;101012.23;116868;1189;21908;-64
2021/12/30 11:15:26;;;;;;;41.00;21.30;;;;;;;1.16;61.27;101008.81;116920;1186;21863;-64
2021/12/30 11:18:06;;;;;;;34.40;17.70;;;;;;;1.19;61.32;100998.54;116896;1189;22916;-80
2021/12/30 11:20:47;;;;;;;27.60;14.20;;;;;;;1.24;61.37;100988.03;116918;1186;23314;-63